Time;durP1;ratioP1;P1;durP2;ratioP2;P2;SDS_P1;SDS_P2;PMS_P1;PMS_P2;Temp;Humidity;BMP_temperature;BMP_pressure;BME280_temperature;BME280_humidity;BME280_pressure;Samples;Min_cycle;Max_cycle;Signal;HPM_P1;HPM_P2
2024/01/21 00:00:35;;;;;;;95.20;62.92;;;27.30;99.90;;;;;;5034302;28;20028;-70
2024/01/21 00:03:01;;;;;;;63.10;42.75;;;27.30;99.90;;;;;;5029102;28;20030;-66
2024/01/21 00:05:28;;;;;;;93.68;55.85;;;27.30;99.90;;;;;;5014810;28;20042;-67
2024/01/21 00:07:55;;;;;;;43.75;29.42;;;27.30;99.90;;;;;;5014891;28;20041;-67
2024/01/21 00:10:22;;;;;;;53.95;32.47;;;27.30;99.90;;;;;;5026669;28;20025;-66
2024/01/21 00:12:48;;;;;;;64.35;35.20;;;27.30;99.90;;;;;;5014647;28;20044;-66
2024/01/21 00:15:15;;;;;;;58.30;34.92;;;27.40;99.90;;;;;;5027651;28;20029;-68
2024/01/21 00:17:41;;;;;;;51.85;33.53;;;27.30;99.90;;;;;;5034573;28;20644;-66
2024/01/21 00:20:08;;;;;;;47.38;31.10;;;27.40;99.90;;;;;;5033251;28;20402;-66
2024/01/21 00:22:34;;;;;;;39.42;28.30;;;27.50;99.90;;;;;;5021906;28;20454;-67
2024/01/21 00:25:01;;;;;;;44.10;28.10;;;27.50;99.90;;;;;;5014247;28;20487;-66
2024/01/21 00:27:28;;;;;;;44.15;30.33;;;27.50;99.90;;;;;;5014393;28;20030;-66
2024/01/21 00:29:54;;;;;;;56.22;37.60;;;27.50;99.90;;;;;;5014358;28;20049;-66
2024/01/21 00:32:21;;;;;;;78.07;52.75;;;27.40;99.90;;;;;;5013037;28;20383;-67
2024/01/21 00:34:47;;;;;;;47.67;33.05;;;27.50;99.90;;;;;;5014270;28;20021;-66
2024/01/21 00:37:14;;;;;;;91.90;64.38;;;27.50;99.90;;;;;;5014343;28;20105;-68
2024/01/21 00:39:40;;;;;;;53.50;35.70;;;27.60;99.90;;;;;;5014267;28;20052;-69
2024/01/21 00:42:07;;;;;;;76.25;52.63;;;27.50;99.90;;;;;;5014158;28;20044;-68
2024/01/21 00:44:33;;;;;;;70.05;43.95;;;27.60;99.90;;;;;;5014340;28;20415;-68
2024/01/21 00:46:59;;;;;;;67.57;44.60;;;27.60;99.90;;;;;;5014094;28;20088;-68
2024/01/21 00:49:26;;;;;;;68.70;44.95;;;27.70;99.90;;;;;;5014027;28;20028;-68
2024/01/21 00:51:53;;;;;;;54.20;36.42;;;27.70;99.90;;;;;;5014041;28;20034;-67
2024/01/21 00:54:19;;;;;;;50.28;34.88;;;27.70;99.90;;;;;;5013996;28;20045;-67
2024/01/21 00:56:46;;;;;;;54.42;37.10;;;27.80;99.90;;;;;;5013896;28;20056;-67
2024/01/21 00:59:12;;;;;;;55.55;38.25;;;27.70;99.90;;;;;;5014024;28;20022;-67
2024/01/21 01:01:39;;;;;;;49.90;36.58;;;27.70;99.90;;;;;;5014064;28;20025;-66
2024/01/21 01:04:06;;;;;;;52.47;36.17;;;27.80;99.90;;;;;;5013377;28;20034;-66
2024/01/21 01:06:33;;;;;;;56.58;38.55;;;27.80;99.90;;;;;;5013956;28;20050;-66
2024/01/21 01:09:00;;;;;;;58.10;37.70;;;27.80;99.90;;;;;;5013768;28;20022;-67
2024/01/21 01:11:27;;;;;;;57.60;38.40;;;27.80;99.90;;;;;;5016298;28;20120;-67
2024/01/21 01:13:54;;;;;;;108.35;74.97;;;27.80;99.90;;;;;;5023007;28;20418;-67
2024/01/21 01:16:20;;;;;;;86.78;60.22;;;27.80;99.90;;;;;;5021913;28;20026;-67
2024/01/21 01:18:47;;;;;;;61.95;44.53;;;27.80;99.90;;;;;;5021768;28;20014;-67
2024/01/21 01:21:13;;;;;;;65.65;43.75;;;27.80;99.90;;;;;;5023159;28;20026;-67
2024/01/21 01:23:40;;;;;;;58.80;39.60;;;27.80;99.90;;;;;;5023578;28;20419;-68
2024/01/21 01:26:08;;;;;;;65.70;43.58;;;27.90;99.90;;;;;;5021396;28;20041;-71
2024/01/21 01:28:34;;;;;;;60.53;44.47;;;27.90;99.90;;;;;;5023938;28;20033;-67
2024/01/21 01:31:01;;;;;;;63.85;44.20;;;27.90;99.90;;;;;;5020835;28;20050;-67
2024/01/21 01:33:27;;;;;;;63.05;40.60;;;27.90;99.90;;;;;;5030969;28;20025;-66
2024/01/21 01:35:54;;;;;;;53.92;37.72;;;28.00;99.90;;;;;;5024808;28;20385;-68
2024/01/21 01:38:20;;;;;;;57.30;40.33;;;27.90;99.90;;;;;;5023994;28;20021;-67
2024/01/21 01:40:47;;;;;;;63.15;42.95;;;28.00;99.90;;;;;;5022365;28;20075;-68
2024/01/21 01:43:13;;;;;;;65.13;47.63;;;27.90;99.90;;;;;;5022571;28;20395;-69
2024/01/21 01:45:40;;;;;;;48.20;35.20;;;28.00;99.90;;;;;;5023992;28;20025;-69
2024/01/21 01:48:07;;;;;;;45.25;33.50;;;27.90;99.90;;;;;;5021149;28;20022;-67
2024/01/21 01:50:34;;;;;;;56.22;39.17;;;27.90;99.90;;;;;;5013572;28;20033;-69
2024/01/21 01:53:01;;;;;;;44.55;29.73;;;28.00;99.90;;;;;;5013752;28;20379;-69
2024/01/21 01:55:28;;;;;;;47.05;30.77;;;28.00;99.90;;;;;;5013071;28;20025;-68
2024/01/21 01:57:54;;;;;;;34.75;28.15;;;27.90;99.90;;;;;;5013396;28;20136;-69
2024/01/21 02:00:21;;;;;;;39.28;27.98;;;28.00;99.90;;;;;;5013368;28;20080;-70
2024/01/21 02:02:47;;;;;;;41.33;29.90;;;28.00;99.90;;;;;;5013521;28;20029;-69
2024/01/21 02:05:14;;;;;;;43.78;29.73;;;28.00;99.90;;;;;;5013213;28;20022;-69
2024/01/21 02:07:40;;;;;;;44.25;28.02;;;28.00;99.90;;;;;;5013236;28;20080;-69
2024/01/21 02:10:07;;;;;;;36.70;28.05;;;28.10;99.90;;;;;;5013310;28;20018;-68
2024/01/21 02:12:34;;;;;;;39.35;28.42;;;28.00;99.90;;;;;;5013063;28;20018;-68
2024/01/21 02:15:00;;;;;;;38.78;28.42;;;28.10;99.90;;;;;;5013206;28;20048;-67
2024/01/21 02:17:27;;;;;;;34.58;27.67;;;28.20;99.90;;;;;;5015890;28;20029;-68
2024/01/21 02:19:53;;;;;;;35.17;26.92;;;28.20;99.90;;;;;;5016800;28;20467;-68
2024/01/21 02:22:24;;;;;;;43.22;28.58;;;28.20;99.90;;;;;;5016914;28;20021;-68
2024/01/21 02:24:50;;;;;;;36.60;28.85;;;28.20;99.90;;;;;;5016862;28;20025;-68
2024/01/21 02:27:17;;;;;;;43.15;30.30;;;28.30;99.90;;;;;;5016481;28;20378;-69
2024/01/21 02:29:43;;;;;;;38.75;28.30;;;28.40;99.90;;;;;;5016692;28;20042;-68
2024/01/21 02:32:10;;;;;;;38.70;27.48;;;28.40;99.90;;;;;;5017124;28;20022;-68
2024/01/21 02:34:36;;;;;;;35.70;27.35;;;28.40;99.90;;;;;;5028507;28;20463;-68
2024/01/21 02:37:03;;;;;;;38.05;27.83;;;28.40;99.90;;;;;;5025900;28;20018;-69
2024/01/21 02:39:29;;;;;;;37.28;28.23;;;28.40;99.90;;;;;;5024292;28;20013;-67
2024/01/21 02:41:56;;;;;;;39.08;27.65;;;28.40;99.90;;;;;;5026023;28;20029;-67
2024/01/21 02:44:22;;;;;;;37.95;24.70;;;28.40;99.90;;;;;;5033747;28;20052;-67
2024/01/21 02:46:49;;;;;;;32.55;24.35;;;28.40;99.90;;;;;;5035911;28;20390;-67
2024/01/21 02:49:16;;;;;;;47.55;36.70;;;28.50;99.90;;;;;;5035962;28;20018;-68
2024/01/21 02:51:43;;;;;;;64.63;43.35;;;28.50;99.90;;;;;;5035869;28;20470;-68
2024/01/21 02:54:09;;;;;;;110.50;67.90;;;28.50;99.90;;;;;;5036125;28;20056;-67
2024/01/21 02:56:36;;;;;;;42.67;30.48;;;28.60;99.90;;;;;;5035880;28;20053;-67
2024/01/21 02:59:02;;;;;;;58.53;42.50;;;28.50;99.90;;;;;;5036067;28;20017;-67
2024/01/21 03:01:29;;;;;;;44.67;29.58;;;28.60;99.90;;;;;;5035767;28;20033;-67
2024/01/21 03:03:56;;;;;;;68.07;51.25;;;28.70;99.90;;;;;;5035742;28;20113;-68
2024/01/21 03:06:22;;;;;;;95.93;69.57;;;28.60;99.90;;;;;;5035969;28;20040;-67
2024/01/21 03:08:49;;;;;;;40.65;32.92;;;28.70;99.90;;;;;;5035687;28;20025;-68
2024/01/21 03:11:16;;;;;;;43.63;33.20;;;28.70;99.90;;;;;;5035571;28;20022;-68
2024/01/21 03:13:43;;;;;;;54.75;39.92;;;28.70;99.90;;;;;;5035560;28;20037;-68
2024/01/21 03:16:11;;;;;;;45.58;34.78;;;28.80;99.90;;;;;;5035636;28;20410;-68
2024/01/21 03:18:39;;;;;;;43.35;28.42;;;28.70;99.90;;;;;;5035311;28;20029;-68
2024/01/21 03:21:06;;;;;;;36.83;27.45;;;28.80;99.90;;;;;;5035571;28;20026;-68
2024/01/21 03:23:34;;;;;;;37.08;26.85;;;28.80;99.90;;;;;;5035499;28;20088;-68
2024/01/21 03:26:00;;;;;;;59.88;43.63;;;28.90;99.90;;;;;;5035430;28;20025;-67
2024/01/21 03:28:27;;;;;;;63.90;45.67;;;28.90;99.90;;;;;;5035094;28;20064;-69
2024/01/21 03:30:54;;;;;;;154.40;108.38;;;28.90;99.90;;;;;;5035187;28;20483;-69
2024/01/21 03:33:20;;;;;;;48.28;36.03;;;28.90;99.90;;;;;;5032634;28;20360;-68
2024/01/21 03:35:47;;;;;;;58.38;44.90;;;28.90;99.90;;;;;;5020701;28;20084;-69
2024/01/21 03:38:14;;;;;;;60.45;44.65;;;28.90;99.90;;;;;;5015620;28;20053;-68
2024/01/21 03:40:40;;;;;;;42.67;31.13;;;29.00;99.90;;;;;;5015278;28;20056;-68
2024/01/21 03:43:07;;;;;;;43.20;29.98;;;29.00;99.90;;;;;;5015276;28;20076;-68
2024/01/21 03:45:34;;;;;;;37.13;28.98;;;29.00;99.90;;;;;;5030434;28;20036;-68
2024/01/21 03:48:00;;;;;;;38.28;31.23;;;29.10;99.90;;;;;;5034911;28;20030;-68
2024/01/21 03:50:27;;;;;;;37.63;27.52;;;29.10;99.90;;;;;;5034918;28;20027;-68
2024/01/21 03:52:53;;;;;;;33.92;25.02;;;29.10;99.90;;;;;;5034975;28;20017;-68
2024/01/21 03:55:21;;;;;;;34.78;25.85;;;29.10;99.90;;;;;;5022941;28;20057;-68
2024/01/21 03:57:47;;;;;;;34.72;24.33;;;29.20;99.90;;;;;;5014995;28;20018;-68
2024/01/21 04:00:15;;;;;;;59.33;44.35;;;29.30;99.90;;;;;;5015152;28;20018;-68
2024/01/21 04:02:41;;;;;;;40.90;26.88;;;29.40;99.90;;;;;;5015063;28;20530;-69
2024/01/21 04:05:08;;;;;;;95.05;69.90;;;29.40;99.90;;;;;;5015064;28;20061;-68
2024/01/21 04:07:35;;;;;;;43.80;31.33;;;29.40;99.90;;;;;;5022192;28;20497;-64
2024/01/21 04:10:03;;;;;;;53.17;42.28;;;29.50;99.90;;;;;;5034685;28;20052;-70
2024/01/21 04:12:29;;;;;;;47.08;31.98;;;29.50;99.90;;;;;;5034455;28;20029;-70
2024/01/21 04:14:56;;;;;;;38.08;28.33;;;29.50;99.90;;;;;;5033977;28;20022;-68
2024/01/21 04:17:23;;;;;;;34.95;27.33;;;29.50;99.90;;;;;;5032858;28;20033;-68
2024/01/21 04:19:50;;;;;;;42.13;28.50;;;29.50;99.90;;;;;;5032123;28;20051;-68
2024/01/21 04:22:18;;;;;;;34.83;24.23;;;29.60;99.90;;;;;;5032474;28;20030;-68
2024/01/21 04:24:46;;;;;;;32.67;23.88;;;29.60;99.90;;;;;;5030128;28;20025;-68
2024/01/21 04:27:13;;;;;;;30.75;23.77;;;29.60;99.90;;;;;;5025350;28;20037;-68
2024/01/21 04:29:40;;;;;;;38.78;26.92;;;29.70;99.90;;;;;;5021097;28;20046;-70
2024/01/21 04:32:06;;;;;;;35.45;28.83;;;29.80;99.90;;;;;;5026053;28;20034;-69
2024/01/21 04:34:33;;;;;;;56.00;37.95;;;29.80;99.90;;;;;;5020126;28;20022;-70
2024/01/21 04:37:01;;;;;;;74.35;54.70;;;29.80;99.90;;;;;;5023548;28;20013;-70
2024/01/21 04:39:27;;;;;;;46.83;32.67;;;29.90;99.90;;;;;;5025848;28;20024;-70
2024/01/21 04:41:54;;;;;;;43.42;26.88;;;29.90;99.90;;;;;;5022385;28;20045;-70
2024/01/21 04:44:20;;;;;;;42.67;28.13;;;30.00;99.90;;;;;;5014222;28;20101;-70
2024/01/21 04:46:47;;;;;;;41.28;27.73;;;30.00;99.90;;;;;;5014157;28;20018;-71
2024/01/21 04:49:13;;;;;;;36.63;26.52;;;30.10;99.90;;;;;;5013800;28;20021;-70
2024/01/21 04:51:40;;;;;;;41.22;27.45;;;30.20;99.90;;;;;;5017704;28;20025;-71
2024/01/21 04:54:07;;;;;;;35.25;25.13;;;30.20;99.90;;;;;;5015348;28;20105;-70
2024/01/21 04:56:35;;;;;;;37.50;25.88;;;30.20;99.90;;;;;;5013770;28;20483;-70
2024/01/21 04:59:02;;;;;;;30.52;23.35;;;30.30;99.90;;;;;;5013959;28;20064;-69
2024/01/21 05:01:29;;;;;;;36.28;25.73;;;30.30;99.90;;;;;;5013904;28;20108;-70
2024/01/21 05:03:56;;;;;;;32.08;23.48;;;30.40;99.90;;;;;;5013715;28;20022;-70
2024/01/21 05:06:22;;;;;;;31.95;23.83;;;30.40;99.90;;;;;;5013861;28;20076;-70
2024/01/21 05:08:49;;;;;;;31.67;24.65;;;30.60;99.90;;;;;;5013802;28;20108;-70
2024/01/21 05:11:15;;;;;;;89.60;63.28;;;30.60;99.90;;;;;;5013713;28;20026;-69
2024/01/21 05:13:42;;;;;;;36.60;27.13;;;30.50;99.90;;;;;;5018983;28;20029;-71
2024/01/21 05:16:12;;;;;;;33.65;26.20;;;30.50;99.90;;;;;;5023831;28;20070;-71
2024/01/21 05:18:39;;;;;;;31.45;22.90;;;30.50;99.90;;;;;;5022504;28;20030;-70
2024/01/21 05:21:05;;;;;;;32.28;24.30;;;30.60;99.90;;;;;;5028758;28;20022;-70
2024/01/21 05:23:33;;;;;;;33.47;25.10;;;30.70;99.90;;;;;;5033401;28;20021;-69
2024/01/21 05:26:00;;;;;;;30.48;20.75;;;30.70;99.90;;;;;;5033190;28;20467;-69
2024/01/21 05:28:26;;;;;;;32.95;25.95;;;30.80;99.90;;;;;;5033248;28;20037;-70
2024/01/21 05:30:53;;;;;;;35.13;21.60;;;30.80;99.90;;;;;;5033073;28;20045;-70
2024/01/21 05:33:19;;;;;;;28.63;20.80;;;30.90;99.90;;;;;;5024646;28;20022;-67
2024/01/21 05:35:46;;;;;;;33.60;22.95;;;30.90;99.90;;;;;;5033225;28;20022;-70
2024/01/21 05:38:12;;;;;;;29.63;21.88;;;30.90;99.90;;;;;;5032871;28;20033;-70
2024/01/21 05:40:39;;;;;;;28.70;22.35;;;31.00;99.90;;;;;;5032171;28;20036;-69
2024/01/21 05:43:05;;;;;;;34.13;23.02;;;31.00;99.90;;;;;;5028465;28;20036;-69
2024/01/21 05:45:32;;;;;;;24.92;18.60;;;31.10;99.90;;;;;;5020188;28;20018;-69
2024/01/21 05:47:58;;;;;;;35.97;21.35;;;31.10;99.90;;;;;;5020932;28;20048;-70
2024/01/21 05:50:25;;;;;;;35.90;24.65;;;31.20;99.90;;;;;;5033160;28;20029;-70
2024/01/21 05:52:51;;;;;;;32.03;21.27;;;31.30;99.90;;;;;;5036161;28;20127;-70
2024/01/21 05:55:18;;;;;;;34.63;21.67;;;31.40;99.90;;;;;;5036020;28;20017;-70
2024/01/21 05:57:44;;;;;;;26.27;19.98;;;31.30;99.90;;;;;;5035918;28;20108;-70
2024/01/21 06:00:12;;;;;;;26.50;20.63;;;31.20;99.90;;;;;;5035958;28;20482;-70
2024/01/21 06:02:39;;;;;;;27.25;19.63;;;31.10;99.90;;;;;;5036140;28;20474;-70
2024/01/21 06:05:05;;;;;;;31.23;22.75;;;31.20;99.90;;;;;;5035795;28;20025;-71
2024/01/21 06:07:32;;;;;;;29.35;19.73;;;31.30;99.90;;;;;;5028212;28;20026;-70
2024/01/21 06:09:58;;;;;;;25.20;18.52;;;31.40;99.90;;;;;;5016042;28;20026;-70
2024/01/21 06:12:25;;;;;;;27.65;20.40;;;31.50;99.90;;;;;;5015873;28;20026;-71
2024/01/21 06:14:51;;;;;;;28.40;20.83;;;31.60;99.90;;;;;;5015998;28;20030;-70
2024/01/21 06:17:18;;;;;;;30.50;20.10;;;31.60;99.90;;;;;;5015748;28;20056;-69
2024/01/21 06:19:44;;;;;;;27.45;19.85;;;31.70;99.90;;;;;;5014913;28;20030;-69
2024/01/21 06:22:11;;;;;;;28.25;19.88;;;31.80;99.90;;;;;;5014823;28;20025;-69
2024/01/21 06:24:38;;;;;;;24.83;18.55;;;31.80;99.90;;;;;;5015040;28;20434;-69
2024/01/21 06:27:05;;;;;;;25.25;18.45;;;31.90;99.90;;;;;;5014754;28;20383;-70
2024/01/21 06:29:31;;;;;;;27.63;18.55;;;31.90;99.90;;;;;;5014692;28;20041;-69
2024/01/21 06:31:58;;;;;;;23.70;17.80;;;32.00;99.90;;;;;;5014802;28;20025;-69
2024/01/21 06:34:24;;;;;;;24.40;17.48;;;32.00;99.90;;;;;;5014691;28;20018;-69
2024/01/21 06:36:51;;;;;;;23.85;18.15;;;32.00;99.90;;;;;;5014822;28;20485;-69
2024/01/21 06:39:17;;;;;;;22.88;16.52;;;32.00;99.90;;;;;;5014772;28;20066;-69
2024/01/21 06:41:44;;;;;;;20.08;16.88;;;32.00;99.90;;;;;;5014545;28;20127;-69
2024/01/21 06:44:10;;;;;;;22.70;16.38;;;32.10;99.90;;;;;;5014656;28;20033;-70
2024/01/21 06:46:38;;;;;;;22.63;17.58;;;32.10;99.90;;;;;;5014673;28;20018;-69
2024/01/21 06:49:05;;;;;;;23.33;16.85;;;32.10;99.90;;;;;;5014520;28;20056;-69
2024/01/21 06:51:33;;;;;;;21.05;16.48;;;32.10;99.90;;;;;;5014444;28;20060;-69
2024/01/21 06:54:00;;;;;;;26.13;18.52;;;32.10;99.90;;;;;;5014429;28;20395;-69
2024/01/21 06:56:27;;;;;;;26.08;18.88;;;32.10;99.90;;;;;;5014370;28;20022;-67
2024/01/21 06:58:54;;;;;;;20.85;16.90;;;32.10;99.90;;;;;;5014283;28;20088;-68
2024/01/21 07:01:20;;;;;;;26.17;17.73;;;32.20;99.90;;;;;;5014256;28;20025;-70
2024/01/21 07:03:47;;;;;;;24.73;18.65;;;32.40;99.90;;;;;;5013813;28;20036;-68
2024/01/21 07:06:13;;;;;;;26.17;17.90;;;32.40;99.90;;;;;;5014108;28;20510;-69
2024/01/21 07:08:40;;;;;;;26.58;20.10;;;32.40;99.90;;;;;;5014124;28;20467;-68
2024/01/21 07:11:09;;;;;;;30.58;20.98;;;32.50;99.90;;;;;;5014024;28;20037;-69
2024/01/21 07:13:36;;;;;;;22.48;18.83;;;32.50;99.90;;;;;;5014027;28;20025;-69
2024/01/21 07:16:03;;;;;;;25.40;18.80;;;32.50;99.90;;;;;;5014119;28;20080;-68
2024/01/21 07:18:30;;;;;;;24.15;19.15;;;32.60;99.90;;;;;;5014047;28;20479;-68
2024/01/21 07:20:56;;;;;;;29.50;19.33;;;32.60;99.90;;;;;;5013828;28;20483;-68
2024/01/21 07:23:23;;;;;;;31.55;20.90;;;32.60;99.90;;;;;;5013989;28;20025;-68
2024/01/21 07:25:49;;;;;;;26.50;19.27;;;32.50;99.90;;;;;;5013789;28;20026;-69
2024/01/21 07:28:16;;;;;;;29.55;19.77;;;32.60;99.90;;;;;;5013598;28;20034;-69
2024/01/21 07:30:43;;;;;;;22.70;16.33;;;32.60;99.90;;;;;;5013663;28;20057;-68
2024/01/21 07:33:10;;;;;;;22.08;16.80;;;32.60;99.90;;;;;;5013754;28;20026;-69
2024/01/21 07:35:37;;;;;;;30.52;22.63;;;32.60;99.90;;;;;;5013553;28;20026;-69
2024/01/21 07:38:04;;;;;;;27.88;21.15;;;32.60;99.90;;;;;;5013667;28;20025;-68
2024/01/21 07:40:31;;;;;;;27.00;20.00;;;32.50;99.90;;;;;;5013478;28;20132;-69
2024/01/21 07:42:58;;;;;;;29.23;19.27;;;32.50;99.90;;;;;;5013296;28;20514;-68
2024/01/21 07:45:24;;;;;;;28.80;20.55;;;32.50;99.90;;;;;;5013471;28;20062;-69
2024/01/21 07:47:51;;;;;;;24.98;17.67;;;32.60;99.90;;;;;;5013347;28;20383;-69
2024/01/21 07:50:17;;;;;;;24.98;19.15;;;32.70;99.90;;;;;;5013825;28;20109;-68
2024/01/21 07:52:44;;;;;;;36.38;26.27;;;32.70;99.90;;;;;;5022484;28;20110;-70
2024/01/21 07:55:10;;;;;;;25.17;19.33;;;32.80;99.90;;;;;;5022270;28;20080;-72
2024/01/21 07:57:40;;;;;;;21.50;18.23;;;32.90;99.90;;;;;;5022206;28;20017;-69
2024/01/21 08:00:07;;;;;;;23.30;16.92;;;32.90;99.90;;;;;;5023579;28;20102;-69
2024/01/21 08:02:34;;;;;;;26.30;15.55;;;33.00;99.90;;;;;;5022564;28;20606;-70
2024/01/21 08:05:04;;;;;;;21.17;16.95;;;33.00;99.90;;;;;;5021531;28;20505;-70
2024/01/21 08:07:31;;;;;;;25.17;16.67;;;33.00;99.90;;;;;;5023430;28;20021;-70
2024/01/21 08:09:58;;;;;;;21.58;16.00;;;33.00;99.90;;;;;;5021476;28;20018;-70
2024/01/21 08:12:27;;;;;;;25.13;16.58;;;33.00;99.90;;;;;;5022829;28;20014;-71
2024/01/21 08:14:54;;;;;;;20.98;16.08;;;33.10;99.90;;;;;;5020338;28;20360;-69
2024/01/21 08:17:20;;;;;;;24.27;17.80;;;33.00;99.90;;;;;;5022471;28;20029;-70
2024/01/21 08:19:47;;;;;;;39.95;28.35;;;33.00;99.90;;;;;;5022922;28;20033;-69
2024/01/21 08:22:14;;;;;;;30.58;23.27;;;32.90;99.90;;;;;;5021178;28;20497;-69
2024/01/21 08:24:40;;;;;;;59.08;47.03;;;32.90;99.90;;;;;;5022317;28;20036;-68
2024/01/21 08:27:07;;;;;;;167.10;151.65;;;32.90;99.90;;;;;;5022669;28;20456;-68
2024/01/21 08:29:33;;;;;;;76.25;68.95;;;32.90;99.90;;;;;;5012586;28;20042;-70
2024/01/21 08:32:02;;;;;;;69.05;62.90;;;33.10;99.90;;;;;;5017849;28;20041;-70
2024/01/21 08:34:29;;;;;;;59.10;53.88;;;33.10;99.90;;;;;;5028984;28;20493;-66
2024/01/21 08:36:55;;;;;;;116.45;106.97;;;33.20;99.90;;;;;;5025105;28;20121;-70
2024/01/21 08:39:22;;;;;;;313.17;283.60;;;33.20;99.90;;;;;;5030730;28;20033;-70
2024/01/21 08:41:48;;;;;;;292.52;265.45;;;33.30;99.90;;;;;;5023696;28;20525;-67
2024/01/21 08:44:15;;;;;;;279.48;253.73;;;33.30;99.90;;;;;;5026243;28;20029;-67
2024/01/21 08:46:44;;;;;;;311.48;282.25;;;33.30;99.90;;;;;;5021669;28;20026;-69
2024/01/21 08:49:10;;;;;;;349.27;315.05;;;33.40;99.90;;;;;;5025551;28;20030;-70
2024/01/21 08:51:37;;;;;;;361.88;324.98;;;33.40;99.90;;;;;;5024306;28;20017;-70
2024/01/21 08:54:03;;;;;;;375.20;337.65;;;33.30;99.90;;;;;;5022842;28;20463;-70
2024/01/21 08:56:32;;;;;;;435.85;390.67;;;33.40;99.90;;;;;;5024275;28;20018;-71
2024/01/21 08:58:58;;;;;;;446.40;400.65;;;33.40;99.90;;;;;;5023816;28;20034;-70
2024/01/21 09:01:25;;;;;;;517.13;464.10;;;33.40;99.90;;;;;;5022140;28;20030;-67
2024/01/21 09:03:51;;;;;;;399.40;359.48;;;33.40;99.90;;;;;;5024221;28;20028;-68
2024/01/21 09:06:19;;;;;;;566.30;509.90;;;33.50;99.90;;;;;;5025379;28;20418;-69
2024/01/21 09:08:45;;;;;;;562.03;505.42;;;33.60;99.90;;;;;;5023871;28;20029;-68
2024/01/21 09:11:13;;;;;;;468.45;420.52;;;33.60;99.90;;;;;;5025157;28;20022;-68
2024/01/21 09:13:39;;;;;;;389.10;350.05;;;33.60;99.90;;;;;;5022780;28;20047;-68
2024/01/21 09:16:06;;;;;;;384.80;346.02;;;33.60;99.90;;;;;;5032028;28;20021;-68
2024/01/21 09:18:33;;;;;;;901.45;812.47;;;33.70;99.90;;;;;;5022958;28;20033;-68
2024/01/21 09:20:59;;;;;;;698.92;629.30;;;33.70;99.90;;;;;;5027985;28;20029;-69
2024/01/21 09:23:26;;;;;;;501.33;450.33;;;33.70;99.90;;;;;;5027103;28;20023;-68
2024/01/21 09:25:52;;;;;;;630.45;569.08;;;33.80;99.90;;;;;;5023877;28;20144;-68
2024/01/21 09:28:19;;;;;;;291.98;263.20;;;33.80;99.90;;;;;;5027032;28;20022;-71
2024/01/21 09:30:46;;;;;;;701.95;631.47;;;33.80;99.90;;;;;;5024118;28;20121;-71
2024/01/21 09:33:12;;;;;;;773.33;697.72;;;33.80;99.90;;;;;;5029366;28;20045;-70
2024/01/21 09:35:39;;;;;;;531.92;477.90;;;33.80;99.90;;;;;;5023144;28;20033;-70
2024/01/21 09:38:06;;;;;;;726.45;654.90;;;33.70;99.90;;;;;;5024244;28;20032;-69
2024/01/21 09:40:32;;;;;;;359.20;323.48;;;33.70;99.90;;;;;;5024701;28;20075;-68
2024/01/21 09:42:59;;;;;;;424.13;382.17;;;33.80;99.90;;;;;;5027653;28;20061;-69
2024/01/21 09:45:29;;;;;;;568.83;512.30;;;33.70;99.90;;;;;;5024380;28;20028;-69
2024/01/21 09:47:57;;;;;;;603.45;543.10;;;33.70;99.90;;;;;;5024959;28;20025;-69
2024/01/21 09:50:25;;;;;;;609.05;548.90;;;33.60;99.90;;;;;;5023305;28;20018;-70
2024/01/21 09:52:52;;;;;;;555.95;499.95;;;33.60;99.90;;;;;;5030391;28;20018;-69
2024/01/21 09:55:19;;;;;;;616.97;555.05;;;33.60;99.90;;;;;;5022524;28;20370;-68
2024/01/21 09:57:45;;;;;;;581.38;523.95;;;33.50;99.90;;;;;;5021706;28;20017;-69
2024/01/21 10:00:14;;;;;;;531.50;477.27;;;33.60;99.90;;;;;;5028207;28;20037;-68
2024/01/21 10:02:43;;;;;;;530.35;476.77;;;33.60;99.90;;;;;;5025935;28;20034;-63
2024/01/21 10:05:10;;;;;;;396.40;357.63;;;33.60;99.90;;;;;;5034556;28;20072;-63
2024/01/21 10:07:38;;;;;;;483.08;433.42;;;33.60;99.90;;;;;;5032092;28;20026;-63
2024/01/21 10:10:06;;;;;;;492.90;441.90;;;33.50;99.90;;;;;;5033044;28;20028;-63
2024/01/21 10:12:34;;;;;;;494.02;442.35;;;33.50;99.90;;;;;;5046317;28;20028;-62
2024/01/21 10:15:01;;;;;;;661.47;595.53;;;33.50;99.90;;;;;;5052525;28;20029;-63
2024/01/21 10:17:27;;;;;;;870.67;785.28;;;33.40;99.90;;;;;;5052612;28;20033;-63
2024/01/21 10:19:55;;;;;;;590.63;531.13;;;33.40;99.90;;;;;;5039309;28;20064;-63
2024/01/21 10:22:24;;;;;;;361.30;325.35;;;33.40;99.90;;;;;;5029027;28;20044;-68
2024/01/21 10:24:51;;;;;;;349.67;315.00;;;33.30;99.90;;;;;;5015178;28;20026;-69
2024/01/21 10:27:18;;;;;;;460.88;413.05;;;33.30;99.90;;;;;;5031847;28;20483;-67
2024/01/21 10:29:46;;;;;;;593.72;534.22;;;33.20;99.90;;;;;;5032417;28;20121;-68
2024/01/21 10:32:15;;;;;;;470.67;423.45;;;33.00;99.90;;;;;;5032104;28;20033;-68
2024/01/21 10:34:50;;;;;;;383.88;344.80;;;32.90;99.90;;;;;;5033124;28;20056;-68
2024/01/21 10:37:17;;;;;;;250.27;227.38;;;32.70;99.90;;;;;;5033546;28;20022;-69
2024/01/21 10:39:47;;;;;;;311.08;280.83;;;32.60;99.90;;;;;;5035475;28;20479;-67
2024/01/21 10:42:14;;;;;;;240.15;217.98;;;32.50;99.90;;;;;;5034963;28;20033;-68
2024/01/21 10:44:43;;;;;;;305.73;275.63;;;32.30;99.90;;;;;;5036650;28;20029;-70
2024/01/21 10:47:11;;;;;;;335.75;302.85;;;32.20;99.90;;;;;;5036530;28;20037;-71
2024/01/21 10:49:40;;;;;;;326.83;294.38;;;32.20;99.90;;;;;;5036332;28;20022;-68
2024/01/21 10:52:10;;;;;;;321.10;289.40;;;32.20;99.90;;;;;;5030550;28;20435;-68
2024/01/21 10:54:41;;;;;;;325.70;294.27;;;32.10;99.90;;;;;;5035779;28;20029;-68
2024/01/21 10:57:07;;;;;;;320.38;288.95;;;32.00;99.90;;;;;;5033207;28;20459;-69
2024/01/21 10:59:38;;;;;;;288.35;260.63;;;31.90;99.90;;;;;;5028542;28;20028;-69
2024/01/21 11:02:05;;;;;;;241.82;219.18;;;31.80;99.90;;;;;;5032241;28;20032;-68
2024/01/21 11:04:34;;;;;;;157.57;143.23;;;31.70;99.90;;;;;;5030501;28;20212;-69
2024/01/21 11:07:03;;;;;;;158.85;144.60;;;31.70;99.90;;;;;;5032107;28;20044;-67
2024/01/21 11:09:32;;;;;;;199.07;180.95;;;31.60;99.90;;;;;;5027838;28;20534;-70
2024/01/21 11:11:59;;;;;;;193.98;176.63;;;31.60;99.90;;;;;;5029443;28;20440;-68
2024/01/21 11:14:29;;;;;;;220.25;199.68;;;31.60;99.90;;;;;;5031221;28;20029;-70
2024/01/21 11:16:57;;;;;;;165.27;150.65;;;31.60;99.90;;;;;;5025581;28;20025;-68
2024/01/21 11:19:25;;;;;;;205.82;187.32;;;31.50;99.90;;;;;;5028573;28;20025;-68
2024/01/21 11:22:03;;;;;;;150.40;136.30;;;31.50;99.90;;;;;;5026504;28;20406;-67
2024/01/21 11:24:30;;;;;;;239.10;217.15;;;31.40;99.90;;;;;;5027289;28;20104;-66
2024/01/21 11:26:58;;;;;;;352.85;317.45;;;31.40;99.90;;;;;;5025641;28;20025;-67
2024/01/21 11:29:27;;;;;;;374.08;335.63;;;31.40;99.90;;;;;;5034885;28;20045;-68
2024/01/21 11:32:00;;;;;;;394.25;353.52;;;31.30;99.90;;;;;;5026133;28;20459;-68
2024/01/21 11:34:39;;;;;;;359.38;322.55;;;31.30;99.90;;;;;;5026363;28;20022;-67
2024/01/21 11:37:09;;;;;;;407.67;365.13;;;31.20;99.90;;;;;;5027885;28;20584;-68
2024/01/21 11:39:37;;;;;;;427.27;381.67;;;31.20;99.90;;;;;;5029549;28;20433;-67
2024/01/21 11:42:04;;;;;;;582.17;522.28;;;31.10;99.90;;;;;;5032248;28;20030;-67
2024/01/21 11:44:32;;;;;;;578.75;520.70;;;31.10;99.90;;;;;;5034237;28;20120;-65
2024/01/21 11:47:01;;;;;;;574.50;516.65;;;31.00;99.90;;;;;;5034053;28;20026;-68
2024/01/21 11:49:30;;;;;;;581.72;521.85;;;31.00;99.90;;;;;;5026853;28;20483;-67
2024/01/21 11:51:59;;;;;;;586.50;526.67;;;31.00;99.90;;;;;;5016596;28;20360;-68
2024/01/21 11:54:28;;;;;;;585.30;525.58;;;30.90;99.90;;;;;;5025122;28;20686;-68
2024/01/21 11:56:55;;;;;;;625.00;562.28;;;30.90;99.90;;;;;;5023224;28;20071;-68
2024/01/21 11:59:24;;;;;;;281.63;254.38;;;30.80;99.90;;;;;;5032366;28;20104;-69
2024/01/21 12:01:54;;;;;;;33.80;26.35;;;30.80;99.90;;;;;;5033599;28;20017;-68
2024/01/21 12:04:22;;;;;;;35.83;26.83;;;30.80;99.90;;;;;;5032251;28;20030;-68
2024/01/21 12:06:50;;;;;;;37.75;28.90;;;30.80;99.90;;;;;;5024565;28;20479;-68
2024/01/21 12:09:17;;;;;;;109.10;71.40;;;30.70;99.90;;;;;;5015666;28;20391;-67
2024/01/21 12:11:43;;;;;;;81.22;50.60;;;30.60;99.90;;;;;;5019582;28;20100;-68
2024/01/21 12:14:13;;;;;;;60.88;42.70;;;30.60;99.90;;;;;;5031048;28;20095;-68
2024/01/21 12:16:43;;;;;;;69.22;42.80;;;30.40;99.90;;;;;;5027511;28;20022;-67
2024/01/21 12:19:11;;;;;;;34.88;21.40;;;30.40;99.90;;;;;;5020155;28;20390;-68